Date,TemperatureHighF,TemperatureAvgF,TemperatureLowF,DewpointHighF,DewpointAvgF,DewpointLowF,HumidityHigh,HumidityAvg,HumidityLow,PressureMaxIn,PressureMinIn,WindSpeedMaxMPH,WindSpeedAvgMPH,GustSpeedMaxMPH,PrecipitationSumIn
2013-1-1,53.4,40.5,28.9,30.0,27.6,23.0,90,64,31,30.23,30.08,5,1,7,0.00
2013-1-2,61.8,44.7,29.7,31.0,26.2,20.0,87,54,21,30.11,29.96,4,0,7,0.00
2013-1-3,59.8,45.4,32.9,30.0,27.8,24.0,80,53,30,30.17,29.99,13,3,15,0.00
2013-1-4,58.1,46.0,37.0,29.0,27.9,25.0,70,51,32,30.27,30.16,10,1,12,0.00
2013-1-5,63.1,47.0,33.6,29.0,25.2,17.0,77,47,17,30.32,30.20,6,1,8,0.00
2013-1-6,65.5,51.9,42.0,28.0,20.2,15.0,58,31,15,30.20,29.94,9,3,15,0.00
2013-1-7,56.6,44.3,32.7,29.0,27.1,25.0,75,53,31,29.95,29.81,10,2,14,0.00
2013-1-8,61.5,45.1,30.8,30.0,27.3,24.0,85,54,26,30.11,29.91,3,0,5,0.00
2013-1-9,70.3,52.4,34.9,27.0,20.4,12.0,66,35,11,30.21,30.04,9,2,11,0.00
2013-1-10,66.6,54.7,40.1,35.0,22.6,19.0,49,31,18,30.06,29.80,19,3,29,0.00
2013-1-11,53.9,40.3,31.2,36.0,23.6,9.0,94,57,25,30.08,29.87,15,3,24,0.06
2013-1-12,45.5,34.3,25.3,19.0,14.3,7.0,71,48,22,30.09,29.96,6,1,12,0.00
2013-1-13,47.5,34.3,24.2,15.0,10.5,2.0,61,41,16,30.10,29.97,6,1,9,0.00
2013-1-14,43.8,32.1,22.6,15.0,8.4,2.0,66,40,20,30.20,30.03,11,2,16,0.00
2013-1-15,46.9,32.0,18.6,8.0,3.8,-2.0,60,34,13,30.33,30.19,4,1,7,0.00
2013-1-16,61.4,41.1,24.1,16.0,9.4,5.0,53,31,12,30.35,30.19,7,1,7,0.00
2013-1-17,68.3,52.7,34.0,18.0,14.2,12.0,46,24,12,30.24,30.13,11,3,14,0.00
2013-1-18,74.7,57.0,45.7,24.0,18.6,13.0,37,24,10,30.23,30.09,10,2,11,0.00
2013-1-19,76.1,55.0,36.7,26.0,21.5,14.0,49,30,10,30.24,30.11,5,1,9,0.00
2013-1-20,77.6,57.9,42.7,36.0,26.3,22.0,47,32,18,30.17,30.02,6,1,9,0.00
2013-1-21,80.5,59.5,42.4,36.0,31.1,29.0,62,37,19,30.12,30.01,7,1,12,0.00
2013-1-22,81.2,61.8,44.1,36.0,32.0,28.0,60,36,16,30.19,30.08,3,1,6,0.00
2013-1-23,81.9,63.2,47.9,34.0,29.8,26.0,44,30,16,30.23,30.11,6,1,7,0.00
2013-1-24,63.8,59.5,56.1,54.0,42.7,31.0,81,56,36,30.27,30.17,5,0,7,0.04
2013-1-25,77.6,64.6,52.1,50.0,46.7,44.0,80,55,31,30.21,30.00,3,1,7,0.00
2013-1-26,67.5,60.8,55.0,59.0,52.6,47.0,94,76,49,30.02,29.93,13,2,18,0.64
2013-1-27,66.4,58.3,49.5,53.0,49.2,46.0,97,74,49,30.04,29.94,7,1,12,0.00
2013-1-28,57.3,50.7,43.5,49.0,41.4,31.0,90,71,55,30.01,29.93,14,4,19,0.10
2013-1-29,51.9,43.7,36.0,35.0,26.7,19.0,83,55,27,30.19,30.01,16,3,19,0.00
2013-1-30,58.5,44.4,31.5,29.0,24.6,17.0,82,50,21,30.34,30.19,9,1,9,0.00
2013-1-31,62.0,46.0,33.2,36.0,28.2,-99.9,79,55,27,30.26,30.11,6,1,8,0.00